sensor_id;sensor_type;location;lat;lon;timestamp;P1;durP1;ratioP1;P2;durP2;ratioP2
31043;SDS011;17710;52.520;13.352;2023-05-10T00:01:35;6.68;;;4.00;;
31043;SDS011;17710;52.520;13.352;2023-05-10T00:04:02;5.57;;;4.00;;
31043;SDS011;17710;52.520;13.352;2023-05-10T00:06:28;11.50;;;4.50;;
31043;SDS011;17710;52.520;13.352;2023-05-10T00:08:55;6.90;;;4.50;;
31043;SDS011;17710;52.520;13.352;2023-05-10T00:11:21;8.80;;;4.13;;
31043;SDS011;17710;52.520;13.352;2023-05-10T00:13:47;8.73;;;4.35;;
31043;SDS011;17710;52.520;13.352;2023-05-10T00:16:14;6.82;;;4.43;;
31043;SDS011;17710;52.520;13.352;2023-05-10T00:18:42;5.72;;;4.38;;
31043;SDS011;17710;52.520;13.352;2023-05-10T00:21:08;8.20;;;4.30;;
31043;SDS011;17710;52.520;13.352;2023-05-10T00:23:35;5.57;;;4.47;;
31043;SDS011;17710;52.520;13.352;2023-05-10T00:26:01;5.47;;;4.10;;
31043;SDS011;17710;52.520;13.352;2023-05-10T00:28:28;6.63;;;4.50;;
31043;SDS011;17710;52.520;13.352;2023-05-10T00:30:54;6.50;;;4.63;;
31043;SDS011;17710;52.520;13.352;2023-05-10T00:33:20;9.60;;;4.00;;
31043;SDS011;17710;52.520;13.352;2023-05-10T00:35:48;5.30;;;4.65;;
31043;SDS011;17710;52.520;13.352;2023-05-10T00:38:15;7.15;;;4.90;;
31043;SDS011;17710;52.520;13.352;2023-05-10T00:40:41;6.80;;;4.55;;
31043;SDS011;17710;52.520;13.352;2023-05-10T00:43:07;8.20;;;4.18;;
31043;SDS011;17710;52.520;13.352;2023-05-10T00:45:34;9.18;;;4.50;;
31043;SDS011;17710;52.520;13.352;2023-05-10T00:48:02;7.70;;;4.82;;
31043;SDS011;17710;52.520;13.352;2023-05-10T00:50:29;9.60;;;4.05;;
31043;SDS011;17710;52.520;13.352;2023-05-10T00:52:57;7.60;;;4.45;;
31043;SDS011;17710;52.520;13.352;2023-05-10T00:55:24;7.80;;;4.53;;
31043;SDS011;17710;52.520;13.352;2023-05-10T00:57:50;9.55;;;4.57;;
31043;SDS011;17710;52.520;13.352;2023-05-10T01:00:18;8.95;;;4.47;;
31043;SDS011;17710;52.520;13.352;2023-05-10T01:02:44;5.50;;;4.57;;
31043;SDS011;17710;52.520;13.352;2023-05-10T01:05:12;12.65;;;5.18;;
31043;SDS011;17710;52.520;13.352;2023-05-10T01:07:39;8.13;;;4.63;;
31043;SDS011;17710;52.520;13.352;2023-05-10T01:10:07;9.38;;;5.35;;
31043;SDS011;17710;52.520;13.352;2023-05-10T01:12:36;8.50;;;5.18;;
31043;SDS011;17710;52.520;13.352;2023-05-10T01:15:05;10.20;;;4.78;;
31043;SDS011;17710;52.520;13.352;2023-05-10T01:17:34;8.48;;;5.05;;
31043;SDS011;17710;52.520;13.352;2023-05-10T01:20:01;6.63;;;4.88;;
31043;SDS011;17710;52.520;13.352;2023-05-10T01:22:37;9.48;;;4.82;;
31043;SDS011;17710;52.520;13.352;2023-05-10T01:28:34;17.33;;;5.97;;
31043;SDS011;17710;52.520;13.352;2023-05-10T01:31:18;11.90;;;4.63;;
31043;SDS011;17710;52.520;13.352;2023-05-10T01:33:57;6.93;;;4.95;;
31043;SDS011;17710;52.520;13.352;2023-05-10T01:36:29;7.25;;;4.30;;
31043;SDS011;17710;52.520;13.352;2023-05-10T01:38:59;6.82;;;4.55;;
31043;SDS011;17710;52.520;13.352;2023-05-10T01:41:30;6.57;;;5.03;;
31043;SDS011;17710;52.520;13.352;2023-05-10T01:44:04;6.80;;;4.18;;
31043;SDS011;17710;52.520;13.352;2023-05-10T01:46:37;6.07;;;4.57;;
31043;SDS011;17710;52.520;13.352;2023-05-10T01:49:08;6.80;;;5.03;;
31043;SDS011;17710;52.520;13.352;2023-05-10T01:51:38;10.35;;;4.90;;
31043;SDS011;17710;52.520;13.352;2023-05-10T01:54:07;6.43;;;4.00;;
31043;SDS011;17710;52.520;13.352;2023-05-10T01:56:35;6.88;;;4.60;;
31043;SDS011;17710;52.520;13.352;2023-05-10T01:59:06;8.52;;;4.57;;
31043;SDS011;17710;52.520;13.352;2023-05-10T02:01:37;7.30;;;4.95;;
31043;SDS011;17710;52.520;13.352;2023-05-10T02:04:04;7.00;;;4.60;;
31043;SDS011;17710;52.520;13.352;2023-05-10T02:06:34;7.97;;;4.30;;
31043;SDS011;17710;52.520;13.352;2023-05-10T02:09:02;6.32;;;4.63;;
31043;SDS011;17710;52.520;13.352;2023-05-10T02:11:29;6.40;;;4.93;;
31043;SDS011;17710;52.520;13.352;2023-05-10T02:13:56;6.65;;;4.50;;
31043;SDS011;17710;52.520;13.352;2023-05-10T02:16:24;9.75;;;5.00;;
31043;SDS011;17710;52.520;13.352;2023-05-10T02:18:55;5.57;;;4.32;;
31043;SDS011;17710;52.520;13.352;2023-05-10T02:24:16;7.95;;;4.78;;
31043;SDS011;17710;52.520;13.352;2023-05-10T02:26:44;12.07;;;4.78;;
31043;SDS011;17710;52.520;13.352;2023-05-10T02:29:13;8.35;;;5.20;;
31043;SDS011;17710;52.520;13.352;2023-05-10T02:31:41;5.85;;;4.22;;
31043;SDS011;17710;52.520;13.352;2023-05-10T02:34:08;8.00;;;4.35;;
31043;SDS011;17710;52.520;13.352;2023-05-10T02:36:37;8.13;;;4.75;;
31043;SDS011;17710;52.520;13.352;2023-05-10T02:39:06;9.32;;;4.55;;
31043;SDS011;17710;52.520;13.352;2023-05-10T02:41:35;7.85;;;4.85;;
31043;SDS011;17710;52.520;13.352;2023-05-10T02:44:03;6.60;;;4.55;;
31043;SDS011;17710;52.520;13.352;2023-05-10T02:46:34;6.53;;;4.18;;
31043;SDS011;17710;52.520;13.352;2023-05-10T02:49:00;9.43;;;4.85;;
31043;SDS011;17710;52.520;13.352;2023-05-10T02:51:28;8.93;;;4.75;;
31043;SDS011;17710;52.520;13.352;2023-05-10T02:53:59;7.88;;;4.57;;
31043;SDS011;17710;52.520;13.352;2023-05-10T02:56:35;6.75;;;4.38;;
31043;SDS011;17710;52.520;13.352;2023-05-10T02:59:06;6.00;;;4.32;;
31043;SDS011;17710;52.520;13.352;2023-05-10T03:01:33;7.18;;;4.40;;
31043;SDS011;17710;52.520;13.352;2023-05-10T03:03:59;9.10;;;4.85;;
31043;SDS011;17710;52.520;13.352;2023-05-10T03:06:26;8.32;;;4.65;;
31043;SDS011;17710;52.520;13.352;2023-05-10T03:08:53;9.35;;;4.40;;
31043;SDS011;17710;52.520;13.352;2023-05-10T03:11:23;7.75;;;4.65;;
31043;SDS011;17710;52.520;13.352;2023-05-10T03:14:02;5.65;;;4.28;;
31043;SDS011;17710;52.520;13.352;2023-05-10T03:16:39;10.77;;;4.72;;
31043;SDS011;17710;52.520;13.352;2023-05-10T03:19:12;10.30;;;4.85;;
31043;SDS011;17710;52.520;13.352;2023-05-10T03:21:43;9.73;;;4.82;;
31043;SDS011;17710;52.520;13.352;2023-05-10T03:24:15;6.07;;;4.30;;
31043;SDS011;17710;52.520;13.352;2023-05-10T03:26:44;9.98;;;4.35;;
31043;SDS011;17710;52.520;13.352;2023-05-10T03:29:13;7.97;;;4.25;;
31043;SDS011;17710;52.520;13.352;2023-05-10T03:31:41;7.63;;;3.85;;
31043;SDS011;17710;52.520;13.352;2023-05-10T03:34:08;5.30;;;3.92;;
31043;SDS011;17710;52.520;13.352;2023-05-10T03:36:38;8.15;;;4.50;;
31043;SDS011;17710;52.520;13.352;2023-05-10T03:39:04;8.00;;;4.25;;
31043;SDS011;17710;52.520;13.352;2023-05-10T03:41:31;5.43;;;3.72;;
31043;SDS011;17710;52.520;13.352;2023-05-10T03:43:57;6.25;;;4.28;;
31043;SDS011;17710;52.520;13.352;2023-05-10T03:46:24;10.27;;;4.65;;
31043;SDS011;17710;52.520;13.352;2023-05-10T03:48:51;11.93;;;4.22;;
31043;SDS011;17710;52.520;13.352;2023-05-10T03:51:17;13.68;;;4.28;;
31043;SDS011;17710;52.520;13.352;2023-05-10T03:53:44;8.30;;;4.32;;
31043;SDS011;17710;52.520;13.352;2023-05-10T03:56:11;9.68;;;4.50;;
31043;SDS011;17710;52.520;13.352;2023-05-10T03:58:37;8.52;;;4.18;;
31043;SDS011;17710;52.520;13.352;2023-05-10T04:01:04;5.47;;;4.10;;
31043;SDS011;17710;52.520;13.352;2023-05-10T04:03:31;5.65;;;3.92;;
31043;SDS011;17710;52.520;13.352;2023-05-10T04:05:58;7.47;;;4.30;;
31043;SDS011;17710;52.520;13.352;2023-05-10T04:08:25;6.68;;;4.18;;
31043;SDS011;17710;52.520;13.352;2023-05-10T04:10:51;6.20;;;4.00;;
31043;SDS011;17710;52.520;13.352;2023-05-10T04:13:18;8.05;;;4.00;;
31043;SDS011;17710;52.520;13.352;2023-05-10T04:15:45;9.73;;;4.15;;
31043;SDS011;17710;52.520;13.352;2023-05-10T04:18:11;5.97;;;3.85;;
31043;SDS011;17710;52.520;13.352;2023-05-10T04:20:39;6.03;;;3.83;;
31043;SDS011;17710;52.520;13.352;2023-05-10T04:23:05;6.50;;;4.57;;
31043;SDS011;17710;52.520;13.352;2023-05-10T04:25:33;7.90;;;4.50;;
31043;SDS011;17710;52.520;13.352;2023-05-10T04:28:00;8.88;;;4.18;;
31043;SDS011;17710;52.520;13.352;2023-05-10T04:30:26;14.35;;;4.05;;
31043;SDS011;17710;52.520;13.352;2023-05-10T04:32:54;7.22;;;4.10;;
31043;SDS011;17710;52.520;13.352;2023-05-10T04:35:20;7.25;;;4.43;;
31043;SDS011;17710;52.520;13.352;2023-05-10T04:37:48;7.22;;;4.22;;
31043;SDS011;17710;52.520;13.352;2023-05-10T04:40:15;8.85;;;4.28;;
31043;SDS011;17710;52.520;13.352;2023-05-10T04:42:42;6.18;;;3.67;;
31043;SDS011;17710;52.520;13.352;2023-05-10T04:45:10;8.43;;;3.70;;
31043;SDS011;17710;52.520;13.352;2023-05-10T04:47:40;6.38;;;3.60;;
31043;SDS011;17710;52.520;13.352;2023-05-10T04:50:07;8.43;;;3.75;;
31043;SDS011;17710;52.520;13.352;2023-05-10T04:52:34;7.95;;;3.70;;
31043;SDS011;17710;52.520;13.352;2023-05-10T04:55:02;6.25;;;3.70;;
31043;SDS011;17710;52.520;13.352;2023-05-10T04:57:29;8.88;;;3.60;;
31043;SDS011;17710;52.520;13.352;2023-05-10T04:59:56;8.85;;;3.78;;
31043;SDS011;17710;52.520;13.352;2023-05-10T05:02:22;8.73;;;4.00;;
31043;SDS011;17710;52.520;13.352;2023-05-10T05:04:48;10.32;;;3.75;;
31043;SDS011;17710;52.520;13.352;2023-05-10T05:07:15;10.43;;;5.60;;
31043;SDS011;17710;52.520;13.352;2023-05-10T05:09:41;7.28;;;3.72;;
31043;SDS011;17710;52.520;13.352;2023-05-10T05:12:09;4.18;;;3.50;;
31043;SDS011;17710;52.520;13.352;2023-05-10T05:14:38;6.82;;;3.78;;
31043;SDS011;17710;52.520;13.352;2023-05-10T05:17:06;9.27;;;3.70;;
31043;SDS011;17710;52.520;13.352;2023-05-10T05:19:32;6.97;;;3.67;;
31043;SDS011;17710;52.520;13.352;2023-05-10T05:21:58;10.55;;;3.53;;
31043;SDS011;17710;52.520;13.352;2023-05-10T05:24:25;7.03;;;3.45;;
31043;SDS011;17710;52.520;13.352;2023-05-10T05:26:51;8.95;;;3.47;;
31043;SDS011;17710;52.520;13.352;2023-05-10T05:29:19;5.30;;;3.00;;
31043;SDS011;17710;52.520;13.352;2023-05-10T05:31:45;9.85;;;3.65;;
31043;SDS011;17710;52.520;13.352;2023-05-10T05:34:12;9.23;;;3.20;;
31043;SDS011;17710;52.520;13.352;2023-05-10T05:36:38;5.75;;;2.92;;
31043;SDS011;17710;52.520;13.352;2023-05-10T05:39:05;6.72;;;3.28;;
31043;SDS011;17710;52.520;13.352;2023-05-10T05:41:31;8.07;;;3.10;;
31043;SDS011;17710;52.520;13.352;2023-05-10T05:43:58;17.45;;;4.00;;
31043;SDS011;17710;52.520;13.352;2023-05-10T05:46:25;4.50;;;2.95;;
31043;SDS011;17710;52.520;13.352;2023-05-10T05:48:52;12.50;;;3.38;;
31043;SDS011;17710;52.520;13.352;2023-05-10T05:51:18;5.05;;;3.08;;
31043;SDS011;17710;52.520;13.352;2023-05-10T05:53:45;10.05;;;3.22;;
31043;SDS011;17710;52.520;13.352;2023-05-10T05:56:11;6.45;;;2.83;;
31043;SDS011;17710;52.520;13.352;2023-05-10T05:58:38;10.50;;;3.80;;
31043;SDS011;17710;52.520;13.352;2023-05-10T06:01:05;7.65;;;2.80;;
31043;SDS011;17710;52.520;13.352;2023-05-10T06:03:33;6.38;;;3.40;;
31043;SDS011;17710;52.520;13.352;2023-05-10T06:05:59;5.32;;;2.63;;
31043;SDS011;17710;52.520;13.352;2023-05-10T06:08:25;7.13;;;2.83;;
31043;SDS011;17710;52.520;13.352;2023-05-10T06:10:52;5.75;;;2.67;;
31043;SDS011;17710;52.520;13.352;2023-05-10T06:13:18;7.63;;;2.45;;
31043;SDS011;17710;52.520;13.352;2023-05-10T06:15:44;11.00;;;3.03;;
31043;SDS011;17710;52.520;13.352;2023-05-10T06:18:11;4.75;;;2.70;;
31043;SDS011;17710;52.520;13.352;2023-05-10T06:20:40;6.10;;;2.75;;
31043;SDS011;17710;52.520;13.352;2023-05-10T06:23:07;5.80;;;2.70;;
31043;SDS011;17710;52.520;13.352;2023-05-10T06:25:33;7.90;;;2.47;;
31043;SDS011;17710;52.520;13.352;2023-05-10T06:28:00;5.60;;;2.20;;
31043;SDS011;17710;52.520;13.352;2023-05-10T06:30:26;9.70;;;2.58;;
31043;SDS011;17710;52.520;13.352;2023-05-10T06:32:53;9.00;;;2.83;;
31043;SDS011;17710;52.520;13.352;2023-05-10T06:35:20;5.50;;;2.70;;
31043;SDS011;17710;52.520;13.352;2023-05-10T06:37:48;4.53;;;2.70;;
31043;SDS011;17710;52.520;13.352;2023-05-10T06:40:14;7.20;;;2.35;;
31043;SDS011;17710;52.520;13.352;2023-05-10T06:42:41;7.22;;;2.80;;
31043;SDS011;17710;52.520;13.352;2023-05-10T06:45:10;5.07;;;2.22;;
31043;SDS011;17710;52.520;13.352;2023-05-10T06:47:36;6.93;;;2.72;;
31043;SDS011;17710;52.520;13.352;2023-05-10T06:50:03;7.35;;;2.40;;
31043;SDS011;17710;52.520;13.352;2023-05-10T06:52:30;3.42;;;2.28;;
31043;SDS011;17710;52.520;13.352;2023-05-10T06:54:58;14.50;;;2.72;;
31043;SDS011;17710;52.520;13.352;2023-05-10T06:57:25;7.47;;;2.40;;
31043;SDS011;17710;52.520;13.352;2023-05-10T06:59:52;5.25;;;2.50;;
31043;SDS011;17710;52.520;13.352;2023-05-10T07:02:20;5.63;;;2.38;;
31043;SDS011;17710;52.520;13.352;2023-05-10T07:04:47;10.30;;;2.40;;
31043;SDS011;17710;52.520;13.352;2023-05-10T07:07:13;5.22;;;2.70;;
31043;SDS011;17710;52.520;13.352;2023-05-10T07:09:40;9.65;;;2.72;;
31043;SDS011;17710;52.520;13.352;2023-05-10T07:12:08;3.35;;;1.90;;
31043;SDS011;17710;52.520;13.352;2023-05-10T07:14:34;6.45;;;1.98;;
31043;SDS011;17710;52.520;13.352;2023-05-10T07:17:01;7.53;;;2.30;;
31043;SDS011;17710;52.520;13.352;2023-05-10T07:19:27;4.97;;;2.20;;
31043;SDS011;17710;52.520;13.352;2023-05-10T07:21:54;4.55;;;2.60;;
31043;SDS011;17710;52.520;13.352;2023-05-10T07:24:21;7.47;;;2.75;;
31043;SDS011;17710;52.520;13.352;2023-05-10T07:26:48;4.38;;;2.25;;
31043;SDS011;17710;52.520;13.352;2023-05-10T07:29:16;2.58;;;1.90;;
31043;SDS011;17710;52.520;13.352;2023-05-10T07:31:42;3.45;;;2.15;;
31043;SDS011;17710;52.520;13.352;2023-05-10T07:34:08;9.68;;;2.33;;
31043;SDS011;17710;52.520;13.352;2023-05-10T07:36:35;7.60;;;2.55;;
31043;SDS011;17710;52.520;13.352;2023-05-10T07:39:01;4.75;;;1.80;;
31043;SDS011;17710;52.520;13.352;2023-05-10T07:41:28;4.82;;;2.03;;
31043;SDS011;17710;52.520;13.352;2023-05-10T07:43:54;4.90;;;2.33;;
31043;SDS011;17710;52.520;13.352;2023-05-10T07:46:22;3.72;;;1.77;;
31043;SDS011;17710;52.520;13.352;2023-05-10T07:48:49;9.25;;;2.20;;
31043;SDS011;17710;52.520;13.352;2023-05-10T07:51:15;4.25;;;1.95;;
31043;SDS011;17710;52.520;13.352;2023-05-10T07:53:42;7.68;;;2.10;;
31043;SDS011;17710;52.520;13.352;2023-05-10T07:56:21;6.97;;;2.25;;
31043;SDS011;17710;52.520;13.352;2023-05-10T07:58:49;6.95;;;2.20;;
31043;SDS011;17710;52.520;13.352;2023-05-10T08:01:16;3.53;;;1.85;;
31043;SDS011;17710;52.520;13.352;2023-05-10T08:03:44;13.05;;;2.70;;
31043;SDS011;17710;52.520;13.352;2023-05-10T08:06:10;5.45;;;2.05;;
31043;SDS011;17710;52.520;13.352;2023-05-10T08:08:37;6.72;;;2.00;;
31043;SDS011;17710;52.520;13.352;2023-05-10T08:11:03;9.00;;;2.40;;
31043;SDS011;17710;52.520;13.352;2023-05-10T08:13:30;5.38;;;2.53;;
31043;SDS011;17710;52.520;13.352;2023-05-10T08:15:56;2.60;;;2.05;;
31043;SDS011;17710;52.520;13.352;2023-05-10T08:18:23;4.97;;;1.85;;
31043;SDS011;17710;52.520;13.352;2023-05-10T08:20:50;7.93;;;2.33;;
31043;SDS011;17710;52.520;13.352;2023-05-10T08:23:17;3.88;;;1.95;;
31043;SDS011;17710;52.520;13.352;2023-05-10T08:25:43;3.28;;;2.00;;
31043;SDS011;17710;52.520;13.352;2023-05-10T08:28:10;5.82;;;2.15;;
31043;SDS011;17710;52.520;13.352;2023-05-10T08:30:36;7.43;;;2.10;;
31043;SDS011;17710;52.520;13.352;2023-05-10T08:33:03;7.03;;;2.22;;
31043;SDS011;17710;52.520;13.352;2023-05-10T08:35:30;5.60;;;2.28;;
31043;SDS011;17710;52.520;13.352;2023-05-10T08:37:57;5.28;;;2.10;;
31043;SDS011;17710;52.520;13.352;2023-05-10T08:40:24;2.03;;;1.45;;
31043;SDS011;17710;52.520;13.352;2023-05-10T08:42:54;6.20;;;2.15;;
31043;SDS011;17710;52.520;13.352;2023-05-10T08:45:24;3.08;;;1.90;;
31043;SDS011;17710;52.520;13.352;2023-05-10T08:47:53;2.28;;;2.05;;
31043;SDS011;17710;52.520;13.352;2023-05-10T08:50:20;12.70;;;2.28;;
31043;SDS011;17710;52.520;13.352;2023-05-10T08:52:47;4.82;;;2.03;;
31043;SDS011;17710;52.520;13.352;2023-05-10T08:55:17;5.50;;;2.10;;
31043;SDS011;17710;52.520;13.352;2023-05-10T08:57:44;3.22;;;2.13;;
31043;SDS011;17710;52.520;13.352;2023-05-10T09:00:12;3.95;;;1.95;;
31043;SDS011;17710;52.520;13.352;2023-05-10T09:02:39;4.85;;;2.65;;
31043;SDS011;17710;52.520;13.352;2023-05-10T09:05:08;3.60;;;1.85;;
31043;SDS011;17710;52.520;13.352;2023-05-10T09:07:35;5.70;;;1.90;;
31043;SDS011;17710;52.520;13.352;2023-05-10T09:10:02;9.43;;;1.98;;
31043;SDS011;17710;52.520;13.352;2023-05-10T09:12:32;3.40;;;1.98;;
31043;SDS011;17710;52.520;13.352;2023-05-10T09:14:59;6.22;;;2.00;;
31043;SDS011;17710;52.520;13.352;2023-05-10T09:17:26;5.60;;;2.20;;
31043;SDS011;17710;52.520;13.352;2023-05-10T09:19:57;6.10;;;1.80;;
31043;SDS011;17710;52.520;13.352;2023-05-10T09:22:23;2.75;;;2.00;;
31043;SDS011;17710;52.520;13.352;2023-05-10T09:25:02;7.15;;;2.35;;
31043;SDS011;17710;52.520;13.352;2023-05-10T09:27:29;5.20;;;2.13;;
31043;SDS011;17710;52.520;13.352;2023-05-10T09:29:57;4.70;;;2.17;;
31043;SDS011;17710;52.520;13.352;2023-05-10T09:32:26;5.03;;;1.95;;
31043;SDS011;17710;52.520;13.352;2023-05-10T09:35:05;5.25;;;2.03;;
31043;SDS011;17710;52.520;13.352;2023-05-10T09:37:32;3.60;;;1.88;;
31043;SDS011;17710;52.520;13.352;2023-05-10T09:39:59;3.65;;;1.92;;
31043;SDS011;17710;52.520;13.352;2023-05-10T09:42:25;4.60;;;2.17;;
31043;SDS011;17710;52.520;13.352;2023-05-10T09:44:51;3.53;;;1.98;;
31043;SDS011;17710;52.520;13.352;2023-05-10T09:47:19;4.60;;;2.15;;
31043;SDS011;17710;52.520;13.352;2023-05-10T09:49:48;4.60;;;1.90;;
31043;SDS011;17710;52.520;13.352;2023-05-10T09:52:18;17.35;;;2.40;;
31043;SDS011;17710;52.520;13.352;2023-05-10T09:54:45;3.03;;;2.10;;
31043;SDS011;17710;52.520;13.352;2023-05-10T09:57:20;5.70;;;2.33;;
31043;SDS011;17710;52.520;13.352;2023-05-10T09:59:47;6.78;;;2.15;;
31043;SDS011;17710;52.520;13.352;2023-05-10T10:02:15;5.25;;;2.10;;
31043;SDS011;17710;52.520;13.352;2023-05-10T10:04:43;4.72;;;2.40;;
31043;SDS011;17710;52.520;13.352;2023-05-10T10:07:10;4.68;;;1.98;;
31043;SDS011;17710;52.520;13.352;2023-05-10T10:09:36;5.43;;;1.95;;
31043;SDS011;17710;52.520;13.352;2023-05-10T10:12:03;2.63;;;2.20;;
31043;SDS011;17710;52.520;13.352;2023-05-10T10:14:29;2.75;;;1.80;;
31043;SDS011;17710;52.520;13.352;2023-05-10T10:16:56;4.57;;;1.98;;
31043;SDS011;17710;52.520;13.352;2023-05-10T10:19:23;7.95;;;2.40;;
31043;SDS011;17710;52.520;13.352;2023-05-10T10:21:50;8.20;;;2.03;;
31043;SDS011;17710;52.520;13.352;2023-05-10T10:24:17;4.45;;;2.03;;
31043;SDS011;17710;52.520;13.352;2023-05-10T10:26:43;7.68;;;2.00;;
31043;SDS011;17710;52.520;13.352;2023-05-10T10:29:15;5.57;;;1.95;;
31043;SDS011;17710;52.520;13.352;2023-05-10T10:31:51;3.72;;;2.20;;
31043;SDS011;17710;52.520;13.352;2023-05-10T10:34:27;5.38;;;2.38;;
31043;SDS011;17710;52.520;13.352;2023-05-10T10:36:56;2.55;;;2.00;;
31043;SDS011;17710;52.520;13.352;2023-05-10T10:39:24;10.75;;;2.50;;
31043;SDS011;17710;52.520;13.352;2023-05-10T10:41:51;3.17;;;1.88;;
31043;SDS011;17710;52.520;13.352;2023-05-10T10:44:26;2.85;;;1.88;;
31043;SDS011;17710;52.520;13.352;2023-05-10T10:47:01;7.63;;;2.35;;
31043;SDS011;17710;52.520;13.352;2023-05-10T10:49:48;4.45;;;2.05;;
31043;SDS011;17710;52.520;13.352;2023-05-10T10:52:25;3.38;;;2.05;;
31043;SDS011;17710;52.520;13.352;2023-05-10T10:54:58;3.15;;;1.70;;
31043;SDS011;17710;52.520;13.352;2023-05-10T10:57:26;8.23;;;2.50;;
31043;SDS011;17710;52.520;13.352;2023-05-10T11:03:03;4.60;;;1.80;;
31043;SDS011;17710;52.520;13.352;2023-05-10T11:05:36;3.17;;;1.67;;
31043;SDS011;17710;52.520;13.352;2023-05-10T11:08:10;8.27;;;2.17;;
31043;SDS011;17710;52.520;13.352;2023-05-10T11:10:38;3.97;;;2.17;;
31043;SDS011;17710;52.520;13.352;2023-05-10T11:13:06;3.60;;;2.00;;
31043;SDS011;17710;52.520;13.352;2023-05-10T11:15:34;7.22;;;1.90;;
31043;SDS011;17710;52.520;13.352;2023-05-10T11:18:16;5.03;;;2.00;;
31043;SDS011;17710;52.520;13.352;2023-05-10T11:20:43;5.82;;;2.45;;
31043;SDS011;17710;52.520;13.352;2023-05-10T11:23:13;5.00;;;1.95;;
31043;SDS011;17710;52.520;13.352;2023-05-10T11:25:43;3.65;;;1.90;;
31043;SDS011;17710;52.520;13.352;2023-05-10T11:28:10;5.18;;;2.25;;
31043;SDS011;17710;52.520;13.352;2023-05-10T11:30:37;5.35;;;2.30;;
31043;SDS011;17710;52.520;13.352;2023-05-10T11:33:05;9.30;;;2.10;;
31043;SDS011;17710;52.520;13.352;2023-05-10T11:35:36;3.75;;;1.80;;
31043;SDS011;17710;52.520;13.352;2023-05-10T11:38:05;4.78;;;2.03;;
31043;SDS011;17710;52.520;13.352;2023-05-10T11:40:33;8.85;;;1.88;;
31043;SDS011;17710;52.520;13.352;2023-05-10T11:42:59;5.35;;;1.80;;
31043;SDS011;17710;52.520;13.352;2023-05-10T11:45:26;3.38;;;2.28;;
31043;SDS011;17710;52.520;13.352;2023-05-10T11:47:53;3.90;;;1.83;;
31043;SDS011;17710;52.520;13.352;2023-05-10T11:50:20;7.68;;;1.90;;
31043;SDS011;17710;52.520;13.352;2023-05-10T11:52:49;6.53;;;2.15;;
31043;SDS011;17710;52.520;13.352;2023-05-10T11:55:16;4.95;;;1.83;;
31043;SDS011;17710;52.520;13.352;2023-05-10T11:57:44;7.90;;;1.80;;
31043;SDS011;17710;52.520;13.352;2023-05-10T12:00:11;6.35;;;2.08;;
31043;SDS011;17710;52.520;13.352;2023-05-10T12:02:38;6.32;;;2.10;;
31043;SDS011;17710;52.520;13.352;2023-05-10T12:05:08;6.43;;;2.10;;
31043;SDS011;17710;52.520;13.352;2023-05-10T12:07:36;5.85;;;2.42;;
31043;SDS011;17710;52.520;13.352;2023-05-10T12:10:03;2.55;;;1.80;;
31043;SDS011;17710;52.520;13.352;2023-05-10T12:12:35;6.25;;;1.70;;
31043;SDS011;17710;52.520;13.352;2023-05-10T12:15:05;2.88;;;1.60;;
31043;SDS011;17710;52.520;13.352;2023-05-10T12:17:37;4.53;;;2.10;;
31043;SDS011;17710;52.520;13.352;2023-05-10T12:20:13;7.65;;;2.38;;
31043;SDS011;17710;52.520;13.352;2023-05-10T12:22:40;5.32;;;1.90;;
31043;SDS011;17710;52.520;13.352;2023-05-10T12:25:12;9.18;;;1.90;;
31043;SDS011;17710;52.520;13.352;2023-05-10T12:27:38;5.38;;;1.95;;
31043;SDS011;17710;52.520;13.352;2023-05-10T12:30:10;3.65;;;1.60;;
31043;SDS011;17710;52.520;13.352;2023-05-10T12:32:44;7.65;;;1.65;;
31043;SDS011;17710;52.520;13.352;2023-05-10T12:35:11;3.63;;;1.83;;
31043;SDS011;17710;52.520;13.352;2023-05-10T12:37:37;7.05;;;2.17;;
31043;SDS011;17710;52.520;13.352;2023-05-10T12:40:08;3.40;;;2.00;;
31043;SDS011;17710;52.520;13.352;2023-05-10T12:42:37;2.28;;;1.73;;
31043;SDS011;17710;52.520;13.352;2023-05-10T12:45:07;2.50;;;1.88;;
31043;SDS011;17710;52.520;13.352;2023-05-10T12:47:36;3.10;;;1.88;;
31043;SDS011;17710;52.520;13.352;2023-05-10T12:50:04;3.85;;;1.95;;
31043;SDS011;17710;52.520;13.352;2023-05-10T12:52:31;7.15;;;2.00;;
31043;SDS011;17710;52.520;13.352;2023-05-10T12:54:58;2.45;;;2.17;;
31043;SDS011;17710;52.520;13.352;2023-05-10T12:57:25;4.63;;;2.20;;
31043;SDS011;17710;52.520;13.352;2023-05-10T12:59:51;2.20;;;2.00;;
31043;SDS011;17710;52.520;13.352;2023-05-10T13:02:19;8.20;;;2.05;;
31043;SDS011;17710;52.520;13.352;2023-05-10T13:04:46;5.32;;;2.20;;
31043;SDS011;17710;52.520;13.352;2023-05-10T13:07:13;3.13;;;2.00;;
31043;SDS011;17710;52.520;13.352;2023-05-10T13:09:39;2.42;;;1.52;;
31043;SDS011;17710;52.520;13.352;2023-05-10T13:12:05;8.10;;;2.35;;
31043;SDS011;17710;52.520;13.352;2023-05-10T13:14:32;5.20;;;1.70;;
31043;SDS011;17710;52.520;13.352;2023-05-10T13:16:58;2.70;;;1.73;;
31043;SDS011;17710;52.520;13.352;2023-05-10T13:19:26;4.57;;;1.77;;
31043;SDS011;17710;52.520;13.352;2023-05-10T13:21:52;5.35;;;1.85;;
31043;SDS011;17710;52.520;13.352;2023-05-10T13:24:19;6.38;;;1.77;;
31043;SDS011;17710;52.520;13.352;2023-05-10T13:26:45;3.63;;;2.28;;
31043;SDS011;17710;52.520;13.352;2023-05-10T13:29:12;4.63;;;1.80;;
31043;SDS011;17710;52.520;13.352;2023-05-10T13:31:38;7.68;;;2.33;;
31043;SDS011;17710;52.520;13.352;2023-05-10T13:34:05;3.47;;;1.63;;
31043;SDS011;17710;52.520;13.352;2023-05-10T13:36:32;2.85;;;1.45;;
31043;SDS011;17710;52.520;13.352;2023-05-10T13:38:59;6.43;;;1.85;;
31043;SDS011;17710;52.520;13.352;2023-05-10T13:41:27;2.30;;;1.67;;
31043;SDS011;17710;52.520;13.352;2023-05-10T13:43:53;6.60;;;1.73;;
31043;SDS011;17710;52.520;13.352;2023-05-10T13:46:20;6.50;;;1.70;;
31043;SDS011;17710;52.520;13.352;2023-05-10T13:48:46;3.15;;;1.85;;
31043;SDS011;17710;52.520;13.352;2023-05-10T13:51:13;4.20;;;1.75;;
31043;SDS011;17710;52.520;13.352;2023-05-10T13:53:40;5.57;;;1.48;;
31043;SDS011;17710;52.520;13.352;2023-05-10T13:56:07;2.78;;;1.67;;
31043;SDS011;17710;52.520;13.352;2023-05-10T13:58:33;2.88;;;1.77;;
31043;SDS011;17710;52.520;13.352;2023-05-10T14:01:01;2.95;;;1.58;;
31043;SDS011;17710;52.520;13.352;2023-05-10T14:03:29;5.43;;;1.90;;
31043;SDS011;17710;52.520;13.352;2023-05-10T14:05:55;4.55;;;1.90;;
31043;SDS011;17710;52.520;13.352;2023-05-10T14:08:21;5.63;;;3.40;;
31043;SDS011;17710;52.520;13.352;2023-05-10T14:10:49;3.90;;;1.90;;
31043;SDS011;17710;52.520;13.352;2023-05-10T14:13:15;3.40;;;1.58;;
31043;SDS011;17710;52.520;13.352;2023-05-10T14:15:42;2.78;;;1.65;;
31043;SDS011;17710;52.520;13.352;2023-05-10T14:18:08;3.10;;;1.40;;
31043;SDS011;17710;52.520;13.352;2023-05-10T14:20:34;3.53;;;1.38;;
31043;SDS011;17710;52.520;13.352;2023-05-10T14:23:01;7.63;;;1.60;;
31043;SDS011;17710;52.520;13.352;2023-05-10T14:25:27;2.55;;;1.42;;
31043;SDS011;17710;52.520;13.352;2023-05-10T14:27:55;1.77;;;1.30;;
31043;SDS011;17710;52.520;13.352;2023-05-10T14:30:21;1.98;;;1.40;;
31043;SDS011;17710;52.520;13.352;2023-05-10T14:32:48;3.63;;;1.35;;
31043;SDS011;17710;52.520;13.352;2023-05-10T14:35:14;5.22;;;1.60;;
31043;SDS011;17710;52.520;13.352;2023-05-10T14:37:40;2.00;;;1.40;;
31043;SDS011;17710;52.520;13.352;2023-05-10T14:40:08;3.03;;;1.88;;
31043;SDS011;17710;52.520;13.352;2023-05-10T14:42:35;1.48;;;1.30;;
31043;SDS011;17710;52.520;13.352;2023-05-10T14:45:03;4.85;;;1.70;;
31043;SDS011;17710;52.520;13.352;2023-05-10T14:47:30;5.25;;;1.60;;